createdAt,value
2022-12-11T00:00:18.010Z,10
2022-12-11T00:02:13.164Z,8
2022-12-11T00:04:13.271Z,8
2022-12-11T00:06:13.408Z,9
2022-12-11T00:08:13.574Z,8
2022-12-11T00:10:13.618Z,6
2022-12-11T00:12:16.113Z,5
2022-12-11T00:14:13.784Z,4
2022-12-11T00:16:14.292Z,4
2022-12-11T00:18:16.411Z,3
2022-12-11T00:20:14.197Z,3
2022-12-11T00:26:15.161Z,5
2022-12-11T00:28:15.287Z,6
2022-12-11T00:30:15.709Z,5
2022-12-11T00:32:18.175Z,5
2022-12-11T00:34:16.187Z,5
2022-12-11T00:36:19.047Z,5
2022-12-11T00:38:15.049Z,4
2022-12-11T00:40:15.559Z,3
2022-12-11T00:42:15.998Z,3
2022-12-11T00:44:15.712Z,2
2022-12-11T00:46:16.564Z,2
2022-12-11T00:50:16.181Z,2
2022-12-11T00:52:16.549Z,2
2022-12-11T00:54:15.908Z,2
2022-12-11T00:56:25.894Z,1
2022-12-11T00:58:17.029Z,1
2022-12-11T01:00:21.070Z,1
2022-12-11T01:02:22.635Z,1
2022-12-11T01:04:18.540Z,1
2022-12-11T01:06:16.916Z,1
2022-12-11T01:08:17.442Z,1
2022-12-11T01:12:17.586Z,1
2022-12-11T01:20:21.449Z,1
2022-12-11T01:22:20.251Z,1
2022-12-11T01:24:20.219Z,1
2022-12-11T01:26:18.818Z,1
2022-12-11T01:30:21.044Z,1
2022-12-11T01:32:19.544Z,1
2022-12-11T01:34:20.166Z,1
2022-12-11T01:36:25.562Z,1
2022-12-11T01:42:18.313Z,1
2022-12-11T01:44:18.234Z,1
2022-12-11T01:46:21.309Z,1
2022-12-11T01:48:18.759Z,1
2022-12-11T01:50:18.489Z,1
2022-12-11T01:52:19.240Z,1
2022-12-11T01:54:19.056Z,1
2022-12-11T01:56:20.576Z,1
2022-12-11T02:00:22.730Z,1
2022-12-11T02:08:23.322Z,0
2022-12-11T02:28:21.313Z,0
2022-12-11T02:36:55.452Z,1
2022-12-11T02:48:50.994Z,1
2022-12-11T02:50:51.100Z,1
2022-12-11T02:52:51.240Z,1
2022-12-11T02:54:51.340Z,1
2022-12-11T02:56:51.453Z,1
2022-12-11T02:58:55.308Z,1
2022-12-11T03:00:51.644Z,1
2022-12-11T03:12:53.970Z,1
2022-12-11T03:20:52.768Z,1
2022-12-11T03:22:52.904Z,1
2022-12-11T03:24:52.968Z,1
2022-12-11T03:26:56.284Z,1
2022-12-11T03:28:53.204Z,1
2022-12-11T03:30:53.409Z,1
2022-12-11T03:32:53.434Z,1
2022-12-11T03:34:58.202Z,1
2022-12-11T03:36:53.620Z,1
2022-12-11T03:38:53.719Z,1
2022-12-11T03:40:53.848Z,1
2022-12-11T03:42:53.949Z,1
2022-12-11T03:44:54.045Z,1
2022-12-11T03:48:58.551Z,1
2022-12-11T03:50:54.356Z,1
2022-12-11T03:52:54.457Z,1
2022-12-11T03:56:54.635Z,1
2022-12-11T04:04:55.067Z,1
2022-12-11T04:06:55.175Z,1
2022-12-11T04:10:55.372Z,1
2022-12-11T04:12:55.459Z,1
2022-12-11T04:14:55.572Z,1
2022-12-11T04:16:55.636Z,1
2022-12-11T04:18:55.752Z,1
2022-12-11T04:20:55.857Z,1
2022-12-11T04:22:55.954Z,3
2022-12-11T04:24:56.063Z,5
2022-12-11T04:26:56.154Z,3
2022-12-11T04:28:56.262Z,2
2022-12-11T04:30:56.440Z,2
2022-12-11T04:32:56.479Z,2
2022-12-11T04:34:56.604Z,2
2022-12-11T04:36:56.676Z,3
2022-12-11T04:38:56.761Z,2
2022-12-11T04:42:56.958Z,1
2022-12-11T04:44:57.052Z,2
2022-12-11T04:48:58.005Z,1
2022-12-11T04:50:57.338Z,2
2022-12-11T04:52:57.446Z,1
2022-12-11T04:54:57.551Z,2
2022-12-11T04:56:57.621Z,2
2022-12-11T04:58:57.759Z,2
2022-12-11T05:00:57.829Z,2
2022-12-11T05:02:57.994Z,1
2022-12-11T05:04:58.049Z,1
2022-12-11T05:06:58.129Z,1
2022-12-11T05:08:58.221Z,2
2022-12-11T05:10:58.357Z,2
2022-12-11T05:12:58.418Z,2
2022-12-11T05:14:58.520Z,2
2022-12-11T05:16:58.598Z,2
2022-12-11T05:18:58.700Z,1
2022-12-11T05:20:58.787Z,1
2022-12-11T05:22:58.892Z,1
2022-12-11T05:24:58.982Z,1
2022-12-11T05:26:59.076Z,1
2022-12-11T05:28:59.148Z,1
2022-12-11T05:32:59.349Z,1
2022-12-11T05:34:59.452Z,1
2022-12-11T05:36:59.535Z,1
2022-12-11T05:38:59.638Z,1
2022-12-11T05:40:59.725Z,1
2022-12-11T05:42:59.792Z,1
2022-12-11T05:44:59.898Z,1
2022-12-11T05:49:00.099Z,1
2022-12-11T05:51:00.157Z,2
2022-12-11T05:53:00.213Z,2
2022-12-11T05:55:00.314Z,2
2022-12-11T05:57:00.456Z,2
2022-12-11T05:59:00.484Z,2
2022-12-11T06:01:00.580Z,1
2022-12-11T06:03:00.855Z,2
2022-12-11T06:05:00.913Z,1
2022-12-11T06:07:00.874Z,1
2022-12-11T06:09:00.941Z,1
2022-12-11T06:11:01.039Z,2
2022-12-11T06:13:01.119Z,3
2022-12-11T06:15:01.222Z,3
2022-12-11T06:17:01.312Z,2
2022-12-11T06:19:01.532Z,2
2022-12-11T06:21:01.479Z,2
2022-12-11T06:23:01.573Z,2
2022-12-11T06:27:31.831Z,1
2022-12-11T06:29:31.954Z,1
2022-12-11T06:31:32.085Z,2
2022-12-11T06:33:32.177Z,1
2022-12-11T06:35:34.246Z,2
2022-12-11T06:37:32.403Z,2
2022-12-11T06:39:32.503Z,3
2022-12-11T06:41:32.620Z,2
2022-12-11T06:43:32.755Z,3
2022-12-11T06:45:32.925Z,4
2022-12-11T06:47:32.967Z,5
2022-12-11T06:49:33.117Z,3
2022-12-11T06:51:33.206Z,3
2022-12-11T06:53:33.319Z,5
2022-12-11T06:55:33.436Z,4
2022-12-11T06:57:33.539Z,3
2022-12-11T06:59:33.661Z,4
2022-12-11T07:01:33.786Z,4
2022-12-11T07:03:33.897Z,5
2022-12-11T07:05:34.008Z,4
2022-12-11T07:07:34.100Z,4
2022-12-11T07:09:34.232Z,3
2022-12-11T07:11:34.348Z,3
2022-12-11T07:15:37.689Z,4
2022-12-11T07:17:34.614Z,5
2022-12-11T07:19:34.752Z,12
2022-12-11T07:21:34.871Z,42
2022-12-11T07:23:34.981Z,19
2022-12-11T07:25:35.076Z,14
2022-12-11T07:27:35.236Z,28
2022-12-11T07:29:35.266Z,13
2022-12-11T07:31:35.439Z,32
2022-12-11T07:33:35.469Z,118
2022-12-11T07:35:35.587Z,28
2022-12-11T07:37:35.708Z,95
2022-12-11T07:39:35.922Z,26
2022-12-11T07:41:35.897Z,84
2022-12-11T07:43:36.024Z,28
2022-12-11T07:45:36.170Z,12
2022-12-11T07:47:36.264Z,6
2022-12-11T07:49:36.366Z,21
2022-12-11T07:51:36.434Z,51
2022-12-11T07:53:36.708Z,6
2022-12-11T07:55:36.638Z,17
2022-12-11T07:57:36.802Z,32
2022-12-11T07:59:36.872Z,12
2022-12-11T08:01:37.053Z,8
2022-12-11T08:03:37.073Z,4
2022-12-11T08:05:37.176Z,6
2022-12-11T08:07:37.290Z,4
2022-12-11T08:09:37.402Z,4
2022-12-11T08:11:37.495Z,6
2022-12-11T08:13:37.602Z,6
2022-12-11T08:15:37.721Z,6
2022-12-11T08:17:40.159Z,9
2022-12-11T08:19:37.975Z,7
2022-12-11T08:21:38.068Z,16
2022-12-11T08:23:38.164Z,5
2022-12-11T08:25:38.245Z,11
2022-12-11T08:27:38.356Z,14
2022-12-11T08:29:38.474Z,37
2022-12-11T08:31:38.697Z,31
2022-12-11T08:33:38.684Z,10
2022-12-11T08:35:38.784Z,10
2022-12-11T08:37:38.880Z,18
2022-12-11T08:39:38.988Z,11
2022-12-11T08:41:39.084Z,12
2022-12-11T08:43:39.181Z,11
2022-12-11T08:45:39.315Z,5
2022-12-11T08:47:39.433Z,4
2022-12-11T08:51:39.632Z,5
2022-12-11T08:53:39.728Z,7
2022-12-11T08:55:39.842Z,11
2022-12-11T08:57:40.001Z,6
2022-12-11T08:59:40.114Z,9
2022-12-11T09:01:40.231Z,7
2022-12-11T09:03:40.288Z,4
2022-12-11T09:05:40.597Z,6
2022-12-11T09:07:40.490Z,8
2022-12-11T09:09:40.609Z,9
2022-12-11T09:11:40.713Z,11
2022-12-11T09:13:40.825Z,11
2022-12-11T09:15:40.964Z,5
2022-12-11T09:17:41.067Z,7
2022-12-11T09:19:41.202Z,6
2022-12-11T09:21:41.236Z,7
2022-12-11T09:23:41.344Z,10
2022-12-11T09:25:41.452Z,21
2022-12-11T09:27:41.555Z,14
2022-12-11T09:29:41.678Z,12
2022-12-11T09:31:41.725Z,12
2022-12-11T09:33:41.828Z,11
2022-12-11T09:35:41.910Z,7
2022-12-11T09:37:42.086Z,6
2022-12-11T09:39:42.130Z,5
2022-12-11T09:41:42.190Z,6
2022-12-11T09:43:42.307Z,7
2022-12-11T09:45:42.400Z,7
2022-12-11T09:47:42.507Z,6
2022-12-11T09:49:42.610Z,9
2022-12-11T09:51:42.675Z,8
2022-12-11T09:53:42.815Z,10
2022-12-11T09:55:42.912Z,9
2022-12-11T09:57:42.996Z,9
2022-12-11T09:59:43.183Z,18
2022-12-11T10:01:43.293Z,13
2022-12-11T10:03:43.302Z,7
2022-12-11T10:05:43.406Z,8
2022-12-11T10:07:43.554Z,8
2022-12-11T10:09:43.556Z,6
2022-12-11T10:11:43.804Z,6
2022-12-11T10:13:43.755Z,7
2022-12-11T10:15:43.937Z,9
2022-12-11T10:17:43.959Z,7
2022-12-11T10:19:44.055Z,8
2022-12-11T10:21:44.162Z,7
2022-12-11T10:23:44.259Z,7
2022-12-11T10:25:44.344Z,8
2022-12-11T10:27:44.450Z,11
2022-12-11T10:29:44.551Z,5
2022-12-11T10:31:44.634Z,4
2022-12-11T10:35:44.945Z,8
2022-12-11T10:37:44.916Z,9
2022-12-11T10:39:45.025Z,7
2022-12-11T10:41:45.136Z,6
2022-12-11T10:43:45.222Z,8
2022-12-11T10:45:45.311Z,7
2022-12-11T10:47:45.392Z,7
2022-12-11T10:49:45.482Z,9
2022-12-11T10:51:45.571Z,6
2022-12-11T10:53:45.672Z,6
2022-12-11T10:55:45.746Z,7
2022-12-11T10:57:45.871Z,7
2022-12-11T10:59:45.956Z,6
2022-12-11T11:01:46.178Z,9
2022-12-11T11:03:46.163Z,10
2022-12-11T11:05:49.347Z,6
2022-12-11T11:07:46.400Z,6
2022-12-11T11:09:46.435Z,7
2022-12-11T11:11:46.552Z,18
2022-12-11T11:13:46.620Z,214
2022-12-11T11:15:46.743Z,151
2022-12-11T11:17:54.565Z,50
2022-12-11T11:19:46.888Z,34
2022-12-11T11:21:46.981Z,25
2022-12-11T11:23:51.889Z,6
2022-12-11T11:25:47.172Z,5
2022-12-11T11:27:47.256Z,9
2022-12-11T11:29:52.817Z,12
2022-12-11T11:31:47.452Z,17
2022-12-11T11:33:47.532Z,9
2022-12-11T11:35:47.648Z,8
2022-12-11T11:37:47.743Z,7
2022-12-11T11:39:47.808Z,11
2022-12-11T11:41:47.924Z,12
2022-12-11T11:43:48.005Z,24
2022-12-11T11:45:48.218Z,23
2022-12-11T11:47:48.191Z,12
2022-12-11T11:49:48.290Z,16
2022-12-11T11:51:48.366Z,20
2022-12-11T11:53:48.473Z,23
2022-12-11T11:55:48.570Z,30
2022-12-11T11:57:48.698Z,25
2022-12-11T11:59:48.813Z,36
2022-12-11T12:01:48.840Z,22
2022-12-11T12:03:48.922Z,8
2022-12-11T12:05:49.030Z,12
2022-12-11T12:07:49.171Z,18
2022-12-11T12:09:49.204Z,11
2022-12-11T12:11:49.344Z,13
2022-12-11T12:13:50.344Z,12
2022-12-11T12:15:49.520Z,12
2022-12-11T12:17:54.962Z,15
2022-12-11T12:19:49.656Z,12
2022-12-11T12:21:49.725Z,11
2022-12-11T12:23:49.806Z,15
2022-12-11T12:25:49.896Z,18
2022-12-11T12:27:52.806Z,13
2022-12-11T12:29:50.064Z,12
2022-12-11T12:31:50.159Z,27
2022-12-11T12:33:50.292Z,24
2022-12-11T12:35:50.300Z,20
2022-12-11T12:37:50.414Z,14
2022-12-11T12:39:50.619Z,20
2022-12-11T12:41:50.571Z,19
2022-12-11T12:43:50.745Z,19
2022-12-11T12:45:50.817Z,19
2022-12-11T12:47:53.526Z,19
2022-12-11T12:49:50.934Z,20
2022-12-11T12:51:51.012Z,20
2022-12-11T12:53:51.145Z,19
2022-12-11T12:55:51.306Z,21
2022-12-11T12:57:51.327Z,33
2022-12-11T12:59:51.379Z,24
2022-12-11T13:01:51.567Z,21
2022-12-11T13:03:51.576Z,17
2022-12-11T13:05:51.646Z,14
2022-12-11T13:07:54.415Z,23
2022-12-11T13:09:51.846Z,43
2022-12-11T13:11:51.909Z,21
2022-12-11T13:13:55.010Z,33
2022-12-11T13:15:52.070Z,22
2022-12-11T13:17:52.160Z,28
2022-12-11T13:19:52.237Z,28
2022-12-11T13:21:52.337Z,25
2022-12-11T13:23:52.415Z,27
2022-12-11T13:25:52.490Z,26
2022-12-11T13:27:52.577Z,21
2022-12-11T13:29:52.677Z,21
2022-12-11T13:31:52.780Z,26
2022-12-11T13:33:52.854Z,27
2022-12-11T13:35:52.932Z,22
2022-12-11T13:37:52.995Z,59
2022-12-11T13:39:53.269Z,60
2022-12-11T13:41:53.227Z,35
2022-12-11T13:43:53.267Z,26
2022-12-11T13:45:53.436Z,26
2022-12-11T13:50:23.579Z,23
2022-12-11T13:52:23.866Z,21
2022-12-11T13:56:23.949Z,21
2022-12-11T13:58:24.051Z,18
2022-12-11T14:00:24.202Z,19
2022-12-11T14:02:24.346Z,20
2022-12-11T14:04:24.461Z,23
2022-12-11T14:06:24.537Z,22
2022-12-11T14:08:24.751Z,20
2022-12-11T14:10:24.763Z,21
2022-12-11T14:12:24.895Z,20
2022-12-11T14:14:25.010Z,20
2022-12-11T14:16:25.204Z,22
2022-12-11T14:18:25.219Z,14
2022-12-11T14:20:25.342Z,30
2022-12-11T14:22:25.462Z,23
2022-12-11T14:24:25.554Z,28
2022-12-11T14:26:25.677Z,22
2022-12-11T14:28:25.819Z,28
2022-12-11T14:30:25.895Z,26
2022-12-11T14:32:26.013Z,24
2022-12-11T14:34:26.136Z,37
2022-12-11T14:36:26.244Z,34
2022-12-11T14:38:26.369Z,33
2022-12-11T14:40:26.475Z,26
2022-12-11T14:42:26.580Z,29
2022-12-11T14:44:26.697Z,23
2022-12-11T14:46:26.827Z,25
2022-12-11T14:48:26.907Z,29
2022-12-11T14:50:27.028Z,30
2022-12-11T14:52:27.129Z,26
2022-12-11T14:54:27.230Z,26
2022-12-11T14:56:27.363Z,24
2022-12-11T14:58:27.446Z,26
2022-12-11T15:00:27.570Z,33
2022-12-11T15:02:27.840Z,35
2022-12-11T15:04:27.805Z,41
2022-12-11T15:06:27.896Z,70
2022-12-11T15:08:28.084Z,36
2022-12-11T15:10:28.110Z,43
2022-12-11T15:12:28.326Z,54
2022-12-11T15:14:28.437Z,37
2022-12-11T15:16:28.495Z,50
2022-12-11T15:18:28.567Z,23
2022-12-11T15:20:28.670Z,25
2022-12-11T15:22:28.797Z,34
2022-12-11T15:24:28.929Z,33
2022-12-11T15:26:28.996Z,28
2022-12-11T15:28:29.159Z,42
2022-12-11T15:30:29.416Z,39
2022-12-11T15:32:29.350Z,34
2022-12-11T15:34:29.456Z,31
2022-12-11T15:36:29.560Z,26
2022-12-11T15:38:29.651Z,29
2022-12-11T15:40:29.777Z,23
2022-12-11T15:42:29.873Z,22
2022-12-11T15:44:30.041Z,25
2022-12-11T15:46:30.187Z,24
2022-12-11T15:48:30.235Z,23
2022-12-11T15:50:30.350Z,23
2022-12-11T15:52:30.470Z,22
2022-12-11T15:54:30.582Z,34
2022-12-11T15:56:30.671Z,30
2022-12-11T15:58:30.807Z,31
2022-12-11T16:00:30.943Z,42
2022-12-11T16:02:31.071Z,38
2022-12-11T16:04:31.147Z,36
2022-12-11T16:06:31.238Z,31
2022-12-11T16:08:31.506Z,28
2022-12-11T16:10:31.500Z,29
2022-12-11T16:12:31.591Z,26
2022-12-11T16:14:31.796Z,28
2022-12-11T16:16:31.813Z,28
2022-12-11T16:18:31.924Z,30
2022-12-11T16:20:32.029Z,28
2022-12-11T16:22:32.088Z,32
2022-12-11T16:24:32.248Z,30
2022-12-11T16:26:32.331Z,29
2022-12-11T16:28:32.552Z,31
2022-12-11T16:30:32.543Z,26
2022-12-11T16:32:32.642Z,30
2022-12-11T16:34:32.765Z,29
2022-12-11T16:36:32.908Z,21
2022-12-11T16:38:33.010Z,25
2022-12-11T16:40:33.136Z,31
2022-12-11T16:42:33.208Z,29
2022-12-11T16:44:33.381Z,25
2022-12-11T16:46:33.451Z,23
2022-12-11T16:48:33.527Z,26
2022-12-11T16:50:33.639Z,21
2022-12-11T16:52:33.766Z,21
2022-12-11T16:54:33.850Z,24
2022-12-11T16:56:33.992Z,28
2022-12-11T16:58:34.073Z,23
2022-12-11T17:00:34.259Z,22
2022-12-11T17:02:34.382Z,18
2022-12-11T17:04:34.419Z,22
2022-12-11T17:06:34.525Z,20
2022-12-11T17:08:34.663Z,20
2022-12-11T17:10:34.758Z,21
2022-12-11T17:12:34.869Z,22
2022-12-11T17:14:34.976Z,20
2022-12-11T17:16:35.097Z,19
2022-12-11T17:18:35.209Z,24
2022-12-11T17:20:35.373Z,29
2022-12-11T17:22:35.419Z,28
2022-12-11T17:24:35.553Z,25
2022-12-11T17:26:35.658Z,27
2022-12-11T17:28:35.736Z,36
2022-12-11T17:30:35.851Z,42
2022-12-11T17:32:35.971Z,34
2022-12-11T17:34:38.125Z,43
2022-12-11T17:36:36.166Z,46
2022-12-11T17:38:36.293Z,36
2022-12-11T17:40:36.427Z,30
2022-12-11T17:42:36.504Z,33
2022-12-11T17:44:36.770Z,38
2022-12-11T17:46:36.887Z,36
2022-12-11T17:48:36.841Z,40
2022-12-11T17:50:36.937Z,39
2022-12-11T17:52:41.023Z,40
2022-12-11T17:54:37.157Z,41
2022-12-11T17:56:37.261Z,43
2022-12-11T17:58:37.389Z,45
2022-12-11T18:00:37.527Z,45
2022-12-11T18:02:37.695Z,48
2022-12-11T18:04:37.695Z,45
2022-12-11T18:06:37.868Z,40
2022-12-11T18:08:38.045Z,39
2022-12-11T18:10:38.045Z,36
2022-12-11T18:12:38.153Z,38
2022-12-11T18:14:38.261Z,33
2022-12-11T18:16:38.368Z,39
2022-12-11T18:18:38.472Z,37
2022-12-11T18:20:38.587Z,46
2022-12-11T18:22:38.674Z,36
2022-12-11T18:24:38.818Z,40
2022-12-11T18:26:38.941Z,39
2022-12-11T18:28:39.006Z,40
2022-12-11T18:30:39.310Z,40
2022-12-11T18:32:39.248Z,41
2022-12-11T18:34:39.332Z,44
2022-12-11T18:36:39.469Z,44
2022-12-11T18:38:39.585Z,41
2022-12-11T18:40:39.671Z,30
2022-12-11T18:42:39.804Z,32
2022-12-11T18:44:39.967Z,30
2022-12-11T18:46:40.122Z,34
2022-12-11T18:48:40.112Z,40
2022-12-11T18:50:40.202Z,49
2022-12-11T18:52:40.303Z,44
2022-12-11T18:54:40.429Z,40
2022-12-11T18:56:40.679Z,39
2022-12-11T18:58:40.632Z,36
2022-12-11T19:00:44.475Z,24
2022-12-11T19:02:40.979Z,29
2022-12-11T19:04:40.964Z,29
2022-12-11T19:06:41.120Z,26
2022-12-11T19:08:41.175Z,30
2022-12-11T19:10:41.294Z,29
2022-12-11T19:12:41.422Z,33
2022-12-11T19:14:41.536Z,33
2022-12-11T19:16:41.629Z,30
2022-12-11T19:18:41.727Z,30
2022-12-11T19:20:49.156Z,29
2022-12-11T19:22:41.934Z,28
2022-12-11T19:24:42.045Z,34
2022-12-11T19:26:42.165Z,36
2022-12-11T19:28:42.251Z,35
2022-12-11T19:30:42.373Z,35
2022-12-11T19:32:42.461Z,39
2022-12-11T19:34:42.562Z,44
2022-12-11T19:36:42.720Z,42
2022-12-11T19:38:42.776Z,43
2022-12-11T19:40:42.892Z,38
2022-12-11T19:42:43.012Z,44
2022-12-11T19:44:43.090Z,38
2022-12-11T19:46:43.266Z,39
2022-12-11T19:48:43.354Z,35
2022-12-11T19:50:43.422Z,36
2022-12-11T19:52:46.387Z,38
2022-12-11T19:54:43.628Z,36
2022-12-11T19:56:43.731Z,32
2022-12-11T19:58:43.840Z,28
2022-12-11T20:00:43.977Z,27
2022-12-11T20:02:44.038Z,32
2022-12-11T20:04:44.136Z,30
2022-12-11T20:06:44.259Z,28
2022-12-11T20:08:45.825Z,35
2022-12-11T20:10:44.468Z,39
2022-12-11T20:12:44.563Z,40
2022-12-11T20:14:44.800Z,39
2022-12-11T20:17:09.709Z,34
2022-12-11T20:18:44.867Z,32
2022-12-11T20:20:44.942Z,30
2022-12-11T20:22:45.072Z,32
2022-12-11T20:24:45.200Z,31
2022-12-11T20:26:45.269Z,29
2022-12-11T20:28:45.460Z,29
2022-12-11T20:30:45.485Z,29
2022-12-11T20:32:45.699Z,27
2022-12-11T20:34:45.727Z,28
2022-12-11T20:36:45.804Z,27
2022-12-11T20:38:45.922Z,29
2022-12-11T20:40:46.213Z,36
2022-12-11T20:42:46.272Z,39
2022-12-11T20:44:49.129Z,38
2022-12-11T20:46:46.341Z,43
2022-12-11T20:48:46.469Z,39
2022-12-11T20:50:46.559Z,36
2022-12-11T20:52:46.633Z,37
2022-12-11T20:54:46.759Z,36
2022-12-11T20:56:46.864Z,35
2022-12-11T20:58:46.980Z,34
2022-12-11T21:00:47.092Z,36
2022-12-11T21:02:47.176Z,40
2022-12-11T21:04:47.289Z,38
2022-12-11T21:06:47.371Z,44
2022-12-11T21:08:47.487Z,39
2022-12-11T21:10:47.550Z,36
2022-12-11T21:12:47.690Z,37
2022-12-11T21:14:47.796Z,35
2022-12-11T21:16:47.984Z,36
2022-12-11T21:18:48.014Z,29
2022-12-11T21:20:48.108Z,29
2022-12-11T21:22:48.184Z,30
2022-12-11T21:24:48.253Z,36
2022-12-11T21:26:48.400Z,39
2022-12-11T21:28:48.502Z,35
2022-12-11T21:30:48.713Z,35
2022-12-11T21:32:48.686Z,30
2022-12-11T21:34:48.783Z,34
2022-12-11T21:36:48.888Z,34
2022-12-11T21:38:48.996Z,28
2022-12-11T21:40:49.090Z,27
2022-12-11T21:42:49.169Z,35
2022-12-11T21:46:49.417Z,35
2022-12-11T21:48:49.489Z,30
2022-12-11T21:50:49.560Z,32
2022-12-11T21:52:49.684Z,28
2022-12-11T21:54:49.791Z,24
2022-12-11T21:56:49.903Z,24
2022-12-11T21:58:49.953Z,24
2022-12-11T22:00:50.125Z,26
2022-12-11T22:02:50.202Z,28
2022-12-11T22:04:50.256Z,31
2022-12-11T22:06:50.365Z,30
2022-12-11T22:08:50.424Z,30
2022-12-11T22:10:50.550Z,37
2022-12-11T22:12:50.641Z,37
2022-12-11T22:14:50.734Z,39
2022-12-11T22:16:50.859Z,34
2022-12-11T22:18:50.911Z,33
2022-12-11T22:20:51.093Z,31
2022-12-11T22:22:51.129Z,29
2022-12-11T22:24:51.246Z,29
2022-12-11T22:26:51.337Z,27
2022-12-11T22:28:51.453Z,25
2022-12-11T22:30:51.593Z,23
2022-12-11T22:32:51.630Z,23
2022-12-11T22:34:51.697Z,24
2022-12-11T22:36:51.834Z,24
2022-12-11T22:38:51.941Z,23
2022-12-11T22:40:52.002Z,23
2022-12-11T22:42:52.081Z,23
2022-12-11T22:44:52.190Z,24
2022-12-11T22:46:52.294Z,27
2022-12-11T22:48:52.407Z,28
2022-12-11T22:50:52.522Z,27
2022-12-11T22:54:52.707Z,31
2022-12-11T22:56:52.799Z,30
2022-12-11T22:58:52.974Z,30
2022-12-11T23:00:53.147Z,28
2022-12-11T23:02:53.232Z,26
2022-12-11T23:04:53.236Z,26
2022-12-11T23:06:53.303Z,24
2022-12-11T23:08:53.479Z,22
2022-12-11T23:10:53.532Z,25
2022-12-11T23:12:53.654Z,24
2022-12-11T23:14:53.719Z,28
2022-12-11T23:16:53.906Z,30
2022-12-11T23:18:53.923Z,31
2022-12-11T23:20:54.017Z,28
2022-12-11T23:22:54.126Z,27
2022-12-11T23:24:54.240Z,22
2022-12-11T23:26:54.295Z,23
2022-12-11T23:28:54.413Z,23
2022-12-11T23:30:54.647Z,22
2022-12-11T23:32:54.713Z,24
2022-12-11T23:34:54.791Z,23
2022-12-11T23:36:54.880Z,24
2022-12-11T23:38:55.298Z,23
2022-12-11T23:40:55.090Z,23
2022-12-11T23:42:55.171Z,23
2022-12-11T23:44:55.252Z,26
2022-12-11T23:46:55.359Z,28
2022-12-11T23:48:55.491Z,30
2022-12-11T23:50:55.570Z,32
2022-12-11T23:52:55.649Z,31
2022-12-11T23:54:55.767Z,28
2022-12-11T23:56:55.906Z,26
2022-12-11T23:58:55.969Z,27
